Time;durP1;ratioP1;P1;durP2;ratioP2;P2;SDS_P1;SDS_P2;PMS_P1;PMS_P2;Temp;Humidity;BMP_temperature;BMP_pressure;BME280_temperature;BME280_humidity;BME280_pressure;Samples;Min_cycle;Max_cycle;Signal;HPM_P1;HPM_P2
2022/04/23 00:00:34;;;;;;;26.57;20.72;;;;;;;5.78;100.00;101187.30;1743283;81;21017;-77
2022/04/23 00:03:06;;;;;;;25.80;21.00;;;;;;;5.78;100.00;101182.95;1743722;81;21120;-77
2022/04/23 00:05:34;;;;;;;27.93;21.75;;;;;;;5.80;100.00;101177.73;1743515;82;21001;-77
2022/04/23 00:08:04;;;;;;;27.75;21.17;;;;;;;5.83;100.00;101183.59;1743294;81;21022;-77
2022/04/23 00:10:32;;;;;;;30.05;21.77;;;;;;;5.88;100.00;101176.06;1743352;82;21089;-79
2022/04/23 00:13:00;;;;;;;28.80;21.65;;;;;;;5.86;100.00;101174.86;1743151;82;21002;-77
2022/04/23 00:15:29;;;;;;;28.65;20.25;;;;;;;5.83;100.00;101182.30;1743244;82;21090;-77
2022/04/23 00:17:57;;;;;;;27.93;21.00;;;;;;;5.83;100.00;101182.30;1743195;81;21129;-76
2022/04/23 00:20:29;;;;;;;27.13;21.80;;;;;;;5.85;100.00;101189.98;1743212;81;21159;-76
2022/04/23 00:22:56;;;;;;;26.82;21.37;;;;;;;5.88;100.00;101180.80;1742852;82;21026;-76
2022/04/23 00:25:26;;;;;;;26.62;21.10;;;;;;;5.91;100.00;101179.34;1743496;81;21342;-76
2022/04/23 00:27:55;;;;;;;30.65;22.62;;;;;;;5.96;100.00;101181.28;1743805;81;21045;-80
2022/04/23 00:30:22;;;;;;;33.28;24.00;;;;;;;6.02;100.00;101181.92;1743102;81;21785;-79
2022/04/23 00:32:50;;;;;;;33.80;25.40;;;;;;;6.08;100.00;101175.17;1741898;82;21141;-79
2022/04/23 00:35:19;;;;;;;31.90;23.95;;;;;;;6.14;100.00;101165.37;1743834;82;21037;-77
2022/04/23 00:37:47;;;;;;;32.88;24.35;;;;;;;6.18;100.00;101160.04;1745649;80;21061;-76
2022/04/23 00:40:18;;;;;;;32.33;24.57;;;;;;;6.16;100.00;101153.66;1745176;81;21013;-77
2022/04/23 00:42:55;;;;;;;32.95;24.12;;;;;;;6.14;100.00;101161.94;1746054;81;21183;-77
2022/04/23 00:45:26;;;;;;;32.65;23.38;;;;;;;6.13;100.00;101159.83;1745765;80;22075;-77
2022/04/23 00:47:55;;;;;;;35.58;23.90;;;;;;;6.17;100.00;101165.69;1720155;83;21072;-77
2022/04/23 00:50:23;;;;;;;30.50;23.18;;;;;;;6.19;100.00;101170.77;1719962;83;21105;-75
2022/04/23 00:52:53;;;;;;;34.63;24.82;;;;;;;6.21;100.00;101168.48;1719447;83;21344;-76
2022/04/23 00:55:23;;;;;;;34.03;24.20;;;;;;;6.27;100.00;101169.95;1720131;83;21597;-76
2022/04/23 00:57:51;;;;;;;36.85;26.27;;;;;;;6.33;100.00;101172.23;1720088;83;21174;-77
2022/04/23 01:00:18;;;;;;;34.83;25.52;;;;;;;6.39;100.00;101165.93;1719980;83;21551;-77
2022/04/23 01:02:47;;;;;;;35.20;23.87;;;;;;;6.42;100.00;101158.86;1719716;83;21062;-77
2022/04/23 01:05:16;;;;;;;36.50;24.07;;;;;;;6.47;100.00;101162.08;1719354;83;21127;-76
2022/04/23 01:07:44;;;;;;;34.63;24.35;;;;;;;6.48;100.00;101156.43;1720056;83;21117;-77
2022/04/23 01:10:13;;;;;;;34.08;25.30;;;;;;;6.49;100.00;101155.52;1719795;83;21664;-76
2022/04/23 01:12:44;;;;;;;34.45;24.27;;;;;;;6.49;100.00;101146.47;1719885;83;22022;-76
2022/04/23 01:15:13;;;;;;;35.25;24.63;;;;;;;6.51;100.00;101147.67;1720158;83;21077;-77
2022/04/23 01:17:44;;;;;;;31.27;24.32;;;;;;;6.48;100.00;101148.67;1745693;82;20989;-77
2022/04/23 01:20:13;;;;;;;;;;;;;;;6.47;100.00;101148.28;1748378;81;21790;-78
2022/04/23 01:22:44;;;;;;;29.35;23.20;;;;;;;6.46;100.00;101146.61;1724718;82;20295;-76
2022/04/23 01:25:15;;;;;;;32.13;23.30;;;;;;;6.41;100.00;101139.07;1745852;81;21062;-77
2022/04/23 01:27:47;;;;;;;33.90;24.77;;;;;;;6.36;100.00;101133.77;1746122;80;21021;-76
2022/04/23 01:30:17;;;;;;;34.78;25.82;;;;;;;6.27;100.00;101133.30;1745634;80;21060;-77
2022/04/23 01:32:47;;;;;;;29.98;24.05;;;;;;;6.14;100.00;101133.05;1745764;82;21027;-77
2022/04/23 01:35:15;;;;;;;36.17;25.70;;;;;;;6.02;100.00;101127.63;1743668;80;21171;-78
2022/04/23 01:37:46;;;;;;;33.88;25.43;;;;;;;5.95;100.00;101126.61;1712457;83;21196;-77
2022/04/23 01:40:16;;;;;;;31.68;24.40;;;;;;;5.93;100.00;101125.02;1735808;82;21037;-76
2022/04/23 01:42:45;;;;;;;32.58;24.57;;;;;;;5.89;100.00;101131.22;1718045;83;21554;-76
2022/04/23 01:45:12;;;;;;;33.63;24.18;;;;;;;5.87;100.00;101128.72;1740317;81;21044;-75
2022/04/23 01:47:40;;;;;;;37.60;27.25;;;;;;;5.86;100.00;101132.20;1722649;83;21426;-75
2022/04/23 01:50:09;;;;;;;35.48;27.10;;;;;;;5.82;100.00;101135.83;1741095;82;20999;-75
2022/04/23 01:52:37;;;;;;;35.38;26.25;;;;;;;5.76;100.00;101138.27;1722393;83;21837;-79
2022/04/23 01:55:05;;;;;;;35.65;27.87;;;;;;;5.74;100.00;101137.94;1741312;82;21694;-80
2022/04/23 01:57:36;;;;;;;34.43;26.90;;;;;;;5.78;100.00;101142.06;1723069;83;21081;-78
2022/04/23 02:00:15;;;;;;;29.40;24.87;;;;;;;5.79;100.00;101143.28;1741163;82;22247;-76
2022/04/23 02:02:43;;;;;;;31.57;25.92;;;;;;;5.81;100.00;101145.34;1722721;83;20958;-76
2022/04/23 02:05:13;;;;;;;30.40;23.62;;;;;;;5.84;100.00;101148.23;1741427;82;21025;-76
2022/04/23 02:07:44;;;;;;;27.90;22.55;;;;;;;5.84;100.00;101145.65;1722641;83;21086;-76
2022/04/23 02:10:15;;;;;;;35.77;24.57;;;;;;;5.86;100.00;101142.55;1741204;82;21546;-76
2022/04/23 02:12:45;;;;;;;29.77;23.25;;;;;;;5.89;100.00;101144.14;1722414;83;21784;-78
2022/04/23 02:15:16;;;;;;;32.75;25.17;;;;;;;5.88;100.00;101143.32;1740964;82;21017;-76
2022/04/23 02:17:49;;;;;;;25.88;22.10;;;;;;;5.87;100.00;101147.25;1729873;82;21328;-76
2022/04/23 02:20:18;;;;;;;30.45;22.22;;;;;;;5.85;100.00;101149.91;1703766;83;21020;-78
2022/04/23 02:22:48;;;;;;;27.17;23.02;;;;;;;5.87;100.00;101152.42;1707449;83;21940;-77
2022/04/23 02:25:16;;;;;;;28.55;22.40;;;;;;;5.88;100.00;101148.92;1742546;82;21232;-77
2022/04/23 02:27:47;;;;;;;39.65;30.80;;;;;;;5.88;100.00;101139.88;1743229;81;21070;-80
2022/04/23 02:30:20;;;;;;;40.38;29.40;;;;;;;5.89;100.00;101139.80;1742782;82;21051;-76
2022/04/23 02:32:56;;;;;;;37.67;28.90;;;;;;;5.92;100.00;101131.09;1742953;81;21061;-77
2022/04/23 02:35:27;;;;;;;34.85;27.20;;;;;;;5.92;100.00;101124.63;1716767;81;21234;-77
2022/04/23 02:38:01;;;;;;;31.20;24.43;;;;;;;5.84;100.00;101110.75;1710349;82;22316;-79
2022/04/23 02:40:29;;;;;;;30.12;24.12;;;;;;;5.74;100.00;101105.19;1713943;82;21075;-77
2022/04/23 02:42:57;;;;;;;30.45;23.32;;;;;;;5.67;100.00;101099.47;1713948;82;21577;-76
2022/04/23 02:45:25;;;;;;;31.97;25.08;;;;;;;5.60;100.00;101085.16;1714087;82;21110;-76
2022/04/23 02:47:55;;;;;;;35.03;26.20;;;;;;;5.49;100.00;101088.25;1714322;83;21094;-76
2022/04/23 02:50:29;;;;;;;35.08;27.00;;;;;;;5.35;100.00;101101.78;1706547;83;21170;-76
2022/04/23 02:52:57;;;;;;;36.33;27.70;;;;;;;5.27;100.00;101110.33;1706674;83;20996;-74
2022/04/23 02:55:30;;;;;;;34.15;24.52;;;;;;;5.21;100.00;101095.95;1706306;84;21076;-77
2022/04/23 02:58:09;;;;;;;32.58;25.05;;;;;;;5.21;100.00;101101.58;1706337;83;20989;-78
2022/04/23 03:00:41;;;;;;;31.87;24.90;;;;;;;5.30;100.00;101112.79;1706699;83;21020;-75
2022/04/23 03:03:12;;;;;;;31.73;23.90;;;;;;;5.41;100.00;101110.19;1706161;83;21016;-76
2022/04/23 03:05:42;;;;;;;31.90;24.23;;;;;;;5.43;100.00;101117.38;1706219;82;21001;-75
2022/04/23 03:08:12;;;;;;;30.75;23.85;;;;;;;5.45;100.00;101122.03;1706408;83;21427;-76
2022/04/23 03:10:43;;;;;;;35.25;25.40;;;;;;;5.51;100.00;101111.42;1707153;82;21055;-78
2022/04/23 03:13:14;;;;;;;37.23;27.32;;;;;;;5.53;100.00;101107.84;1719910;83;21000;-76
2022/04/23 03:15:44;;;;;;;35.40;27.10;;;;;;;5.48;100.00;101103.36;1705472;82;21209;-79
2022/04/23 03:18:13;;;;;;;31.42;24.65;;;;;;;5.40;100.00;101102.05;1706933;83;21090;-76
2022/04/23 03:20:42;;;;;;;31.33;24.52;;;;;;;5.35;100.00;101106.12;1705459;83;21147;-76
2022/04/23 03:23:12;;;;;;;32.85;24.50;;;;;;;5.41;100.00;101114.06;1706682;83;21039;-75
2022/04/23 03:25:41;;;;;;;34.15;25.82;;;;;;;5.50;100.00;101112.32;1706392;83;21577;-76
2022/04/23 03:28:08;;;;;;;29.32;24.47;;;;;;;5.56;100.00;101118.52;1706353;82;22312;-77
2022/04/23 03:30:38;;;;;;;36.15;26.87;;;;;;;5.60;100.00;101121.80;1725917;81;21796;-79
2022/04/23 03:33:06;;;;;;;38.38;28.30;;;;;;;5.65;100.00;101127.58;1763815;81;21034;-76
2022/04/23 03:35:33;;;;;;;39.25;28.85;;;;;;;5.66;100.00;101112.00;1764457;80;21045;-76
2022/04/23 03:38:03;;;;;;;35.65;27.10;;;;;;;5.69;100.00;101105.84;1769793;80;20985;-77
2022/04/23 03:40:31;;;;;;;38.25;27.50;;;;;;;5.67;100.00;101107.22;1769672;81;22045;-76
2022/04/23 03:42:58;;;;;;;42.05;28.52;;;;;;;5.74;100.00;101106.92;1769786;81;21140;-76
2022/04/23 03:45:27;;;;;;;40.50;30.57;;;;;;;5.82;100.00;101093.19;1769667;81;21376;-79
2022/04/23 03:47:55;;;;;;;41.13;29.90;;;;;;;5.79;100.00;101086.42;1770088;81;21068;-77
2022/04/23 03:50:24;;;;;;;40.50;27.90;;;;;;;5.75;100.00;101075.86;1769844;81;21112;-78
2022/04/23 03:52:51;;;;;;;35.45;26.68;;;;;;;5.73;100.00;101079.44;1769658;81;21093;-76
2022/04/23 03:55:18;;;;;;;41.75;28.92;;;;;;;5.79;100.00;101080.42;1769656;80;21033;-77
2022/04/23 03:57:52;;;;;;;42.00;29.75;;;;;;;5.84;100.00;101084.47;1769808;81;21048;-75
2022/04/23 04:00:22;;;;;;;39.10;26.62;;;;;;;5.90;100.00;101100.59;1769431;81;21088;-75
2022/04/23 04:02:53;;;;;;;43.70;29.37;;;;;;;5.96;100.00;101111.48;1769421;81;21175;-79
2022/04/23 04:05:23;;;;;;;39.03;29.05;;;;;;;6.04;100.00;101117.59;1769778;81;21005;-75
2022/04/23 04:07:52;;;;;;;37.80;27.77;;;;;;;6.11;100.00;101116.38;1769956;81;21290;-80
2022/04/23 04:10:23;;;;;;;40.43;30.45;;;;;;;6.18;100.00;101125.98;1769993;81;21088;-76
2022/04/23 04:12:52;;;;;;;42.70;29.37;;;;;;;6.27;100.00;101115.63;1769328;81;21722;-76
2022/04/23 04:15:21;;;;;;;35.03;26.02;;;;;;;6.32;100.00;101114.97;1769799;81;21085;-75
2022/04/23 04:17:53;;;;;;;38.50;29.27;;;;;;;6.36;100.00;101115.66;1769917;81;21026;-75
2022/04/23 04:20:22;;;;;;;34.03;26.48;;;;;;;6.43;100.00;101115.27;1769149;81;21658;-76
2022/04/23 04:22:51;;;;;;;36.95;27.70;;;;;;;6.51;100.00;101115.33;1769923;81;21049;-75
2022/04/23 04:25:20;;;;;;;35.30;25.90;;;;;;;6.57;100.00;101114.58;1770086;81;21582;-76
2022/04/23 04:27:48;;;;;;;38.67;26.55;;;;;;;6.63;100.00;101110.38;1769814;80;21037;-79
2022/04/23 04:30:17;;;;;;;32.67;26.12;;;;;;;6.72;100.00;101113.42;1769852;81;22164;-77
2022/04/23 04:32:47;;;;;;;31.48;24.20;;;;;;;6.81;100.00;101119.89;1770170;81;21554;-76
2022/04/23 04:35:14;;;;;;;35.23;24.77;;;;;;;6.89;100.00;101122.45;1769817;81;21005;-76
2022/04/23 04:37:42;;;;;;;34.00;24.00;;;;;;;7.00;100.00;101121.08;1765356;80;21049;-77
2022/04/23 04:40:11;;;;;;;28.77;23.10;;;;;;;7.11;100.00;101114.86;1765945;81;21037;-76
2022/04/23 04:42:42;;;;;;;27.95;22.37;;;;;;;7.22;100.00;101110.40;1766294;81;21053;-76
2022/04/23 04:45:10;;;;;;;27.05;21.57;;;;;;;7.34;100.00;101114.09;1765779;81;21061;-75
2022/04/23 04:47:37;;;;;;;26.20;21.05;;;;;;;7.47;100.00;101110.38;1766395;81;21563;-79
2022/04/23 04:50:09;;;;;;;24.80;19.23;;;;;;;7.58;100.00;101106.77;1766059;81;21182;-76
2022/04/23 04:52:36;;;;;;;23.77;18.63;;;;;;;7.67;100.00;101101.52;1766396;79;21539;-75
2022/04/23 04:55:06;;;;;;;21.85;16.62;;;;;;;7.77;100.00;101099.27;1765581;81;21699;-77
2022/04/23 04:57:33;;;;;;;20.85;17.65;;;;;;;7.86;100.00;101106.52;1766576;81;21084;-78
2022/04/23 05:00:01;;;;;;;17.87;15.85;;;;;;;7.96;100.00;101108.16;1765816;81;21112;-77
2022/04/23 05:02:28;;;;;;;18.37;16.12;;;;;;;8.11;100.00;101102.09;1708913;81;21507;-76
2022/04/23 05:04:59;;;;;;;19.67;16.52;;;;;;;8.26;100.00;101092.58;1705273;82;21575;-76
2022/04/23 05:07:27;;;;;;;16.93;15.08;;;;;;;8.45;100.00;101096.71;1702733;82;21223;-76
2022/04/23 05:09:54;;;;;;;17.00;14.00;;;;;;;8.66;100.00;101094.64;1695594;83;21040;-77
2022/04/23 05:12:23;;;;;;;13.98;12.53;;;;;;;8.87;100.00;101086.48;1701918;83;20986;-76
2022/04/23 05:35:57;;;;;;;13.50;10.82;;;;;;;9.78;100.00;101087.34;1802416;79;22309;-76
2022/04/23 05:38:24;;;;;;;12.68;11.33;;;;;;;9.87;100.00;101098.94;1773184;80;20978;-77
2022/04/23 05:40:52;;;;;;;14.47;11.38;;;;;;;9.91;100.00;101102.99;1742452;82;21987;-77
2022/04/23 05:43:20;;;;;;;11.40;10.20;;;;;;;9.93;100.00;101101.13;1742523;81;21080;-77
2022/04/23 05:45:47;;;;;;;11.80;10.28;;;;;;;9.93;100.00;101102.44;1742440;81;21041;-78
2022/04/23 05:48:14;;;;;;;11.05;9.93;;;;;;;9.94;100.00;101108.01;1742533;81;21017;-77
2022/04/23 05:50:42;;;;;;;13.28;10.08;;;;;;;9.97;100.00;101094.81;1742198;81;21419;-77
2022/04/23 05:53:11;;;;;;;9.95;9.03;;;;;;;10.06;100.00;101094.67;1742791;82;21025;-80
2022/04/23 05:55:38;;;;;;;11.50;10.10;;;;;;;10.19;100.00;101091.62;1741738;81;20990;-80
2022/04/23 05:58:07;;;;;;;10.45;9.43;;;;;;;10.34;100.00;101083.27;1742561;82;21109;-77
2022/04/23 06:00:34;;;;;;;11.03;9.43;;;;;;;10.50;100.00;101082.27;1742277;82;21018;-78
2022/04/23 06:03:01;;;;;;;10.23;9.20;;;;;;;10.65;100.00;101076.02;1742417;82;21014;-78
2022/04/23 06:05:30;;;;;;;12.18;9.38;;;;;;;10.82;100.00;101076.16;1741807;82;21014;-77
2022/04/23 06:07:58;;;;;;;11.38;10.18;;;;;;;10.95;100.00;101068.81;1741861;81;21124;-79
2022/04/23 06:10:26;;;;;;;11.08;9.98;;;;;;;11.08;100.00;101075.30;1742606;82;21168;-77
2022/04/23 06:12:54;;;;;;;10.18;9.23;;;;;;;11.15;100.00;101075.23;1742179;82;21054;-77
2022/04/23 06:15:21;;;;;;;10.50;9.40;;;;;;;11.17;100.00;101078.09;1742472;81;20990;-78
2022/04/23 06:17:48;;;;;;;10.15;9.25;;;;;;;11.16;100.00;101073.00;1742450;82;21153;-77
2022/04/23 06:20:16;;;;;;;11.22;10.13;;;;;;;11.14;100.00;101068.36;1741853;82;21029;-77
2022/04/23 06:22:44;;;;;;;11.38;10.35;;;;;;;11.14;100.00;101061.84;1742270;81;21058;-76
2022/04/23 06:25:13;;;;;;;11.40;10.18;;;;;;;11.15;100.00;101056.99;1742192;81;21332;-78
2022/04/23 06:27:40;;;;;;;10.98;9.88;;;;;;;11.16;100.00;101060.78;1742309;82;21574;-79
2022/04/23 06:30:09;;;;;;;11.90;10.00;;;;;;;11.17;100.00;101072.88;1742639;81;21215;-76
2022/04/23 06:32:38;;;;;;;10.15;9.25;;;;;;;11.21;100.00;101076.10;1742122;81;21034;-76
2022/04/23 06:35:08;;;;;;;10.98;9.88;;;;;;;11.26;100.00;101080.51;1736807;81;21042;-77
2022/04/23 06:37:41;;;;;;;11.50;10.45;;;;;;;11.31;100.00;101082.34;1731039;82;21642;-78
2022/04/23 06:40:16;;;;;;;10.85;9.73;;;;;;;11.38;100.00;101078.80;1731534;82;21042;-77
2022/04/23 06:42:41;;;;;;;11.35;10.25;;;;;;;11.46;100.00;101069.97;1731137;82;21862;-78
2022/04/23 06:45:10;;;;;;;11.35;9.88;;;;;;;11.53;100.00;101059.94;1734504;80;21007;-76
2022/04/23 06:48:05;;;;;;;11.00;9.90;;;;;;;11.55;100.00;101068.95;1745979;81;21500;-77
2022/04/23 06:50:36;;;;;;;13.13;10.80;;;;;;;11.56;100.00;101066.70;1758001;81;21085;-77
2022/04/23 06:53:05;;;;;;;11.35;9.83;;;;;;;11.58;100.00;101063.52;1745773;81;21042;-76
2022/04/23 06:55:35;;;;;;;11.40;10.35;;;;;;;11.59;100.00;101058.18;1756355;80;21011;-79
2022/04/23 06:58:03;;;;;;;11.80;10.70;;;;;;;11.63;100.00;101066.61;1748970;80;21073;-78
2022/04/23 07:00:41;;;;;;;11.90;10.80;;;;;;;11.63;100.00;101060.09;1753589;81;21053;-76
2022/04/23 07:03:10;;;;;;;13.13;11.28;;;;;;;11.60;100.00;101057.24;1755614;81;21074;-78
2022/04/23 07:05:38;;;;;;;13.13;11.85;;;;;;;11.57;100.00;101048.81;1731523;82;21614;-79
2022/04/23 07:08:08;;;;;;;12.90;11.70;;;;;;;11.51;100.00;101051.38;1736399;81;21063;-77
2022/04/23 07:10:39;;;;;;;13.45;12.15;;;;;;;11.49;100.00;101057.20;1749311;81;21520;-77
2022/04/23 07:13:07;;;;;;;13.53;12.23;;;;;;;11.45;100.00;101057.89;1752345;80;21026;-78
2022/04/23 07:15:34;;;;;;;13.58;11.22;;;;;;;11.45;100.00;101057.05;1735718;81;21049;-77
2022/04/23 07:18:04;;;;;;;13.48;11.83;;;;;;;11.45;100.00;101050.53;1735851;81;21026;-77
2022/04/23 07:20:31;;;;;;;12.93;11.70;;;;;;;11.45;100.00;101051.38;1731559;81;21057;-78
2022/04/23 07:25:44;;;;;;;14.23;12.90;;;;;;;11.43;100.00;101047.19;1731456;81;21096;-77
2022/04/23 07:28:13;;;;;;;14.45;12.43;;;;;;;11.40;100.00;101056.55;1731472;81;21038;-79
2022/04/23 07:30:42;;;;;;;14.60;12.73;;;;;;;11.35;100.00;101047.27;1731803;81;21064;-76
2022/04/23 07:37:28;;;;;;;14.23;12.80;;;;;;;11.33;100.00;101051.78;1731613;82;21128;-78
2022/04/23 07:38:24;;;;;;;15.00;13.40;;;;;;;11.38;100.00;101044.09;1744318;81;21056;-75
2022/04/23 07:40:52;;;;;;;14.03;12.53;;;;;;;11.46;100.00;101037.37;1744398;80;21048;-76
2022/04/23 07:43:19;;;;;;;15.28;13.68;;;;;;;11.59;100.00;101040.41;1744434;80;21103;-76
2022/04/23 07:45:47;;;;;;;14.20;12.82;;;;;;;11.76;100.00;101030.88;1744350;82;21552;-75
2022/04/23 07:48:16;;;;;;;14.23;12.82;;;;;;;11.97;100.00;101041.55;1744294;81;21475;-76
2022/04/23 07:50:44;;;;;;;15.18;12.50;;;;;;;12.21;100.00;101039.80;1753105;80;21535;-76
2022/04/23 07:53:12;;;;;;;13.35;12.10;;;;;;;12.40;100.00;101030.95;1740449;80;21468;-77
2022/04/23 07:55:41;;;;;;;13.50;12.30;;;;;;;12.62;100.00;101022.27;1732748;80;21395;-80
2022/04/23 07:58:12;;;;;;;13.20;11.85;;;;;;;12.86;100.00;101019.19;1774553;80;21803;-80
2022/04/23 08:00:44;;;;;;;12.58;11.38;;;;;;;13.11;100.00;101004.99;1775173;80;21041;-76
2022/04/23 08:03:11;;;;;;;12.80;11.70;;;;;;;13.33;100.00;100999.37;1775294;80;21030;-78
2022/04/23 08:05:38;;;;;;;12.45;11.25;;;;;;;13.53;100.00;101000.40;1775342;80;21065;-78
2022/04/23 08:08:06;;;;;;;12.80;11.65;;;;;;;13.69;100.00;101003.88;1768247;80;21628;-77
2022/04/23 08:10:35;;;;;;;12.18;10.98;;;;;;;13.85;100.00;101002.16;1772023;80;21013;-79
2022/04/23 08:13:04;;;;;;;11.70;10.70;;;;;;;14.02;100.00;100995.50;1775102;80;20999;-78
2022/04/23 08:15:31;;;;;;;11.75;10.65;;;;;;;14.11;100.00;100999.97;1775138;80;21484;-77
2022/04/23 08:17:58;;;;;;;10.58;9.58;;;;;;;14.20;100.00;100995.27;1774781;80;21006;-78
2022/04/23 08:20:30;;;;;;;9.88;9.00;;;;;;;14.29;100.00;101000.20;1775266;80;21022;-77
2022/04/23 08:22:57;;;;;;;11.22;10.08;;;;;;;14.38;100.00;100988.59;1770717;80;21890;-82
2022/04/23 08:25:25;;;;;;;11.08;10.08;;;;;;;14.44;100.00;100998.07;1775006;80;21029;-79
2022/04/23 08:30:36;;;;;;;11.22;10.23;;;;;;;14.59;100.00;101001.64;1687847;82;21030;-78
2022/04/23 08:33:06;;;;;;;10.38;9.48;;;;;;;14.65;100.00;101007.66;1725373;83;21065;-77
2022/04/23 08:35:38;;;;;;;10.35;9.45;;;;;;;14.70;100.00;100995.03;1724522;82;21265;-79
2022/04/23 08:38:14;;;;;;;10.70;9.63;;;;;;;14.77;100.00;100990.06;1705676;83;21838;-76
2022/04/23 08:40:44;;;;;;;11.10;10.10;;;;;;;14.81;100.00;100983.11;1720170;82;21069;-76
2022/04/23 08:43:14;;;;;;;10.75;9.70;;;;;;;14.90;100.00;100983.27;1770045;81;21140;-77
2022/04/23 08:45:42;;;;;;;9.38;8.55;;;;;;;14.97;100.00;100966.03;1766872;80;21037;-80
2022/04/23 08:48:12;;;;;;;10.38;9.48;;;;;;;15.02;100.00;100969.56;1750622;81;21136;-80
2022/04/23 08:50:41;;;;;;;9.18;8.30;;;;;;;15.06;100.00;100973.09;1750514;81;21033;-78
2022/04/23 08:53:18;;;;;;;10.55;9.55;;;;;;;15.14;100.00;100965.38;1750537;81;21021;-76
2022/04/23 08:55:48;;;;;;;10.28;9.40;;;;;;;15.22;100.00;100959.42;1748245;80;21045;-78
2022/04/23 08:58:17;;;;;;;10.10;8.68;;;;;;;15.33;100.00;100957.17;1751010;81;21479;-76
2022/04/23 09:00:46;;;;;;;9.77;8.70;;;;;;;15.50;100.00;100958.26;1750978;80;21057;-80
2022/04/23 09:03:15;;;;;;;10.25;9.28;;;;;;;15.69;100.00;100963.16;1688185;84;21402;-79
2022/04/23 09:05:44;;;;;;;9.35;8.55;;;;;;;15.80;100.00;100952.98;1758134;81;21100;-76
2022/04/23 09:08:13;;;;;;;9.08;8.28;;;;;;;15.85;100.00;100946.84;1769633;81;21034;-78
2022/04/23 09:10:54;;;;;;;9.83;8.93;;;;;;;15.86;100.00;100936.68;1769695;80;21461;-76
2022/04/23 09:13:31;;;;;;;9.03;8.15;;;;;;;15.80;100.00;100937.22;1769574;81;21081;-81
2022/04/23 09:24:51;;;;;;;9.10;7.75;;;;;;;15.68;100.00;100949.19;1767582;81;21328;-75
2022/04/23 09:27:28;;;;;;;9.48;7.87;;;;;;;15.78;100.00;100951.31;1766170;81;21136;-75
2022/04/23 09:30:04;;;;;;;9.38;8.48;;;;;;;15.82;100.00;100953.67;1765649;80;21035;-75
2022/04/23 09:32:35;;;;;;;8.95;8.05;;;;;;;15.87;100.00;100948.84;1763690;80;21065;-76
2022/04/23 09:35:12;;;;;;;8.85;8.05;;;;;;;15.92;100.00;100936.95;1769025;81;21030;-80
2022/04/23 09:40:29;;;;;;;8.25;7.45;;;;;;;16.14;100.00;100924.92;1758915;81;21680;-76
2022/04/23 09:43:10;;;;;;;8.70;7.90;;;;;;;16.27;100.00;100919.31;1756791;81;21046;-82
2022/04/23 09:45:42;;;;;;;9.00;8.20;;;;;;;16.37;100.00;100920.95;1748679;81;21152;-80
2022/04/23 09:48:16;;;;;;;8.58;7.67;;;;;;;16.42;100.00;100917.05;1711505;83;21050;-76
2022/04/23 09:50:47;;;;;;;11.35;7.83;;;;;;;16.35;100.00;100930.77;1678559;85;21085;-76
2022/04/23 09:53:17;;;;;;;8.80;7.97;;;;;;;16.21;100.00;100921.56;1685618;84;21053;-76
2022/04/23 09:55:47;;;;;;;7.80;7.10;;;;;;;16.09;100.00;100916.16;1678892;83;21023;-76
2022/04/23 09:58:15;;;;;;;8.23;7.53;;;;;;;15.97;100.00;100915.52;1694386;84;21097;-77
2022/04/23 10:00:45;;;;;;;8.18;7.20;;;;;;;15.91;100.00;100913.44;1678683;84;21921;-77
2022/04/23 10:03:29;;;;;;;7.97;7.28;;;;;;;15.80;100.00;100909.66;1681914;83;21104;-78
2022/04/23 10:06:06;;;;;;;7.87;7.08;;;;;;;15.66;100.00;100900.42;1705157;83;21030;-78
2022/04/23 10:08:36;;;;;;;8.38;7.62;;;;;;;15.54;100.00;100896.64;1699513;83;21084;-78
2022/04/23 10:11:21;;;;;;;7.90;7.30;;;;;;;15.48;100.00;100892.45;1699925;83;21055;-76
2022/04/23 10:14:04;;;;;;;8.15;7.45;;;;;;;15.43;100.00;100891.06;1699483;84;21836;-76
2022/04/23 10:16:36;;;;;;;7.92;7.22;;;;;;;15.39;100.00;100881.83;1674538;84;21051;-76
2022/04/23 10:19:04;;;;;;;6.80;6.20;;;;;;;15.39;100.00;100885.77;1688336;84;21167;-77
2022/04/23 10:22:11;;;;;;;6.92;6.33;;;;;;;15.43;99.87;100885.00;1698233;84;21067;-76
2022/04/23 10:25:04;;;;;;;7.20;6.47;;;;;;;15.45;100.00;100877.33;1703687;83;21011;-76
2022/04/23 10:27:34;;;;;;;7.75;6.37;;;;;;;15.48;99.74;100868.84;1704553;83;21090;-78
2022/04/23 10:30:06;;;;;;;8.47;6.27;;;;;;;15.43;91.29;100881.88;1703600;83;21109;-78
2022/04/23 10:32:41;;;;;;;;;;;;;;;15.37;94.61;100876.39;1707004;84;21563;-78
2022/04/23 10:35:31;;;;;;;6.90;6.20;;;;;;;15.26;87.73;100879.50;1690726;83;20197;-78
2022/04/23 10:38:19;;;;;;;7.10;6.40;;;;;;;15.11;94.17;100880.39;1723789;83;20962;-76
2022/04/23 10:40:46;;;;;;;8.08;6.45;;;;;;;14.93;95.05;100873.70;1722029;83;21041;-76
2022/04/23 10:43:19;;;;;;;6.33;5.83;;;;;;;14.79;94.62;100877.55;1696292;83;21092;-76
2022/04/23 10:45:49;;;;;;;6.47;5.97;;;;;;;14.70;96.95;100882.33;1713284;83;21221;-80
2022/04/23 10:48:30;;;;;;;6.35;5.85;;;;;;;14.62;96.77;100876.91;1684079;84;21861;-76
2022/04/23 10:51:15;;;;;;;;;;;;;;;14.54;100.00;100873.63;1700340;83;21015;-76
2022/04/23 10:53:49;;;;;;;5.58;5.08;;;;;;;14.49;100.00;100879.28;1701038;83;20190;-75
2022/04/23 10:56:19;;;;;;;5.95;5.53;;;;;;;14.41;100.00;100875.19;1698652;84;21076;-80
2022/04/23 10:58:55;;;;;;;7.55;5.62;;;;;;;14.31;100.00;100873.02;1696367;83;21924;-76
2022/04/23 11:01:30;;;;;;;6.40;5.87;;;;;;;14.24;100.00;100877.98;1704100;84;21039;-75
2022/04/23 11:04:09;;;;;;;6.08;5.58;;;;;;;14.15;100.00;100886.12;1704560;84;21086;-81
2022/04/23 11:12:25;;;;;;;6.22;5.62;;;;;;;13.92;100.00;100882.03;1748346;81;21114;-77
2022/04/23 11:14:56;;;;;;;5.97;5.47;;;;;;;13.88;100.00;100888.86;1753327;81;21562;-76
2022/04/23 11:17:32;;;;;;;6.45;5.45;;;;;;;13.91;100.00;100888.23;1760760;81;21046;-78
2022/04/23 11:20:01;;;;;;;5.67;5.17;;;;;;;13.94;100.00;100886.67;1742125;80;21085;-75
2022/04/23 11:22:28;;;;;;;8.15;5.30;;;;;;;13.98;100.00;100884.16;1687607;83;20932;-76
2022/04/23 11:24:57;;;;;;;4.83;4.42;;;;;;;14.00;100.00;100883.05;1678196;84;21600;-75
2022/04/23 11:27:38;;;;;;;11.33;5.20;;;;;;;14.01;96.83;100886.03;1667916;83;21176;-78
2022/04/23 11:30:07;;;;;;;5.55;5.05;;;;;;;14.02;96.76;100881.61;1697207;83;21090;-76
2022/04/23 11:32:37;;;;;;;5.58;5.10;;;;;;;14.01;95.85;100882.10;1682502;83;21540;-75
2022/04/23 11:35:08;;;;;;;4.75;4.37;;;;;;;14.04;99.78;100878.39;1678147;84;21451;-76
2022/04/23 11:37:39;;;;;;;5.03;4.62;;;;;;;14.04;96.24;100873.97;1656821;85;21271;-80
2022/04/23 11:40:16;;;;;;;5.15;4.70;;;;;;;14.04;97.47;100873.15;1712630;83;21094;-75
2022/04/23 11:42:48;;;;;;;5.15;4.75;;;;;;;14.05;98.80;100866.95;1710480;83;21101;-76
2022/04/23 11:45:19;;;;;;;5.28;4.78;;;;;;;14.06;92.57;100866.46;1698978;84;21053;-81
2022/04/23 11:48:11;;;;;;;5.00;4.60;;;;;;;14.06;94.29;100859.42;1696987;83;20992;-76
2022/04/23 11:50:42;;;;;;;5.17;4.78;;;;;;;14.04;100.00;100858.75;1696383;84;21015;-75
2022/04/23 11:53:11;;;;;;;4.83;4.42;;;;;;;14.02;100.00;100854.93;1690574;84;21063;-77
2022/04/23 11:55:39;;;;;;;5.35;4.95;;;;;;;13.99;100.00;100853.91;1671339;85;21042;-76
2022/04/23 11:58:07;;;;;;;5.45;4.95;;;;;;;13.95;100.00;100847.75;1671501;84;21031;-76
2022/04/23 12:00:38;;;;;;;6.17;4.92;;;;;;;13.92;100.00;100846.70;1699127;83;21513;-78
2022/04/23 12:03:08;;;;;;;5.67;4.67;;;;;;;13.91;100.00;100848.50;1697464;84;21704;-75
2022/04/23 12:05:36;;;;;;;6.05;4.65;;;;;;;13.95;100.00;100860.84;1699328;84;21705;-81
2022/04/23 12:08:06;;;;;;;6.03;4.97;;;;;;;14.02;100.00;100860.17;1695139;84;21038;-76
2022/04/23 12:10:34;;;;;;;5.03;4.62;;;;;;;14.10;100.00;100854.28;1674835;83;21025;-76
2022/04/23 12:13:08;;;;;;;5.50;5.00;;;;;;;14.19;100.00;100852.19;1733636;81;21077;-76